Time;durP1;ratioP1;P1;durP2;ratioP2;P2;SDS_P1;SDS_P2;PMS_P1;PMS_P2;Temp;Humidity;BMP_temperature;BMP_pressure;BME280_temperature;BME280_humidity;BME280_pressure;Samples;Min_cycle;Max_cycle;Signal;HPM_P1;HPM_P2
2023/07/14 00:04:05;;;;;;;4.15;2.00;;;;;;;19.04;75.01;100730.14;4914798;58;1138831;-76
2023/07/14 00:09:29;;;;;;;4.92;2.55;;;;;;;18.88;76.24;100728.30;4914866;58;1138788;-72
2023/07/14 00:14:35;;;;;;;3.96;2.12;;;;;;;19.09;77.93;100729.98;4915054;58;1138911;-74
2023/07/14 00:19:40;;;;;;;6.28;2.30;;;;;;;19.28;78.24;100732.28;4981295;58;1138811;-71
2023/07/14 00:24:46;;;;;;;3.00;2.50;;;;;;;19.39;78.11;100733.79;4925493;57;1138737;-71
2023/07/14 00:29:52;;;;;;;4.72;2.50;;;;;;;19.30;77.77;100742.34;4918688;58;1138856;-71
2023/07/14 00:35:00;;;;;;;3.10;2.60;;;;;;;19.16;78.37;100747.55;4940814;57;1138830;-70
2023/07/14 00:40:06;;;;;;;3.37;2.45;;;;;;;19.08;78.48;100751.09;4998765;57;1138615;-72
2023/07/14 00:45:16;;;;;;;3.10;2.80;;;;;;;18.96;78.43;100757.77;4918698;58;1138587;-73
2023/07/14 00:50:38;;;;;;;3.08;2.80;;;;;;;18.68;78.42;100756.41;4959745;57;1138595;-72
2023/07/14 00:56:08;;;;;;;6.47;2.63;;;;;;;18.59;79.95;100761.77;4957010;57;1138794;-72
2023/07/14 01:01:24;;;;;;;2.92;2.42;;;;;;;18.52;80.54;100760.70;4917849;58;1138661;-72
2023/07/14 01:06:38;;;;;;;6.20;1.96;;;;;;;18.40;81.61;100760.69;4922692;58;1138827;-72
2023/07/14 01:11:49;;;;;;;5.50;2.47;;;;;;;18.24;82.71;100768.67;4935882;58;1138676;-69
2023/07/14 01:16:55;;;;;;;6.28;2.20;;;;;;;18.18;83.15;100780.05;4918875;57;1138910;-71
2023/07/14 01:22:05;;;;;;;2.65;2.45;;;;;;;18.08;83.97;100781.99;4960382;57;1138834;-69
2023/07/14 01:27:11;;;;;;;3.60;2.40;;;;;;;18.31;86.31;100778.24;5016774;57;1138924;-72
2023/07/14 01:32:22;;;;;;;4.80;3.00;;;;;;;18.51;86.25;100776.94;4998663;57;1138880;-74
2023/07/14 01:37:28;;;;;;;5.35;2.95;;;;;;;18.64;85.61;100785.90;5003648;56;1139081;-72
2023/07/14 01:42:35;;;;;;;4.70;3.58;;;;;;;18.52;83.67;100796.03;4998588;57;1138993;-73
2023/07/14 01:47:46;;;;;;;12.45;2.90;;;;;;;18.22;83.42;100802.30;5018118;58;1138598;-71
2023/07/14 01:52:56;;;;;;;6.03;2.47;;;;;;;17.92;84.58;100807.69;4998462;57;1140870;-73
2023/07/14 01:58:05;;;;;;;6.25;3.12;;;;;;;17.79;86.10;100809.95;4998681;57;1138823;-74
2023/07/14 02:03:17;;;;;;;3.77;2.33;;;;;;;17.90;87.74;100818.20;5018264;57;1138881;-73
2023/07/14 02:08:27;;;;;;;3.52;2.50;;;;;;;17.91;87.03;100829.25;4998422;57;1138840;-74
2023/07/14 02:13:34;;;;;;;5.10;2.30;;;;;;;17.73;86.85;100831.14;4957089;57;1138682;-75
2023/07/14 02:18:41;;;;;;;2.85;2.33;;;;;;;17.54;87.62;100830.84;4947165;57;1138894;-70
2023/07/14 02:23:47;;;;;;;3.90;2.20;;;;;;;17.28;88.55;100837.46;4959704;58;1138885;-75
2023/07/14 02:28:52;;;;;;;3.90;2.65;;;;;;;17.08;89.24;100839.48;4933082;57;1139010;-75
2023/07/14 02:33:59;;;;;;;2.30;2.10;;;;;;;16.99;90.04;100840.87;4998353;57;1138850;-72
2023/07/14 02:39:06;;;;;;;7.67;2.40;;;;;;;17.00;90.54;100855.92;5018140;57;1138624;-75
2023/07/14 02:44:15;;;;;;;3.93;2.67;;;;;;;16.97;90.66;100854.88;4940346;58;1138852;-74
2023/07/14 02:49:21;;;;;;;4.05;2.12;;;;;;;17.07;91.54;100851.16;4927064;57;1138903;-73
2023/07/14 02:54:27;;;;;;;6.77;2.77;;;;;;;17.19;90.85;100854.44;5017392;57;1138759;-72
2023/07/14 02:59:32;;;;;;;6.47;3.27;;;;;;;17.32;91.55;100856.72;4998158;58;1138797;-71
2023/07/14 03:04:38;;;;;;;26.53;11.47;;;;;;;17.44;91.28;100858.15;4998449;57;1138869;-73
2023/07/14 03:09:44;;;;;;;12.98;7.25;;;;;;;17.49;90.31;100861.20;5017382;57;1143074;-75
2023/07/14 03:14:50;;;;;;;3.00;2.02;;;;;;;17.59;89.76;100868.63;4967117;57;1141101;-74
2023/07/14 03:19:56;;;;;;;8.98;2.33;;;;;;;17.42;87.44;100880.19;4907786;58;1138750;-71
2023/07/14 03:25:01;;;;;;;3.25;1.85;;;;;;;17.27;87.86;100877.72;4885303;59;1138793;-70
2023/07/14 03:30:08;;;;;;;3.90;2.00;;;;;;;17.15;88.30;100885.13;4998023;58;1139026;-74
2023/07/14 03:35:14;;;;;;;1.73;1.63;;;;;;;17.09;89.63;100890.61;4998083;58;1138930;-70
2023/07/14 03:40:20;;;;;;;2.05;1.85;;;;;;;17.02;89.63;100895.36;5017612;58;1138816;-74
2023/07/14 03:45:25;;;;;;;3.97;1.60;;;;;;;16.92;89.93;100893.26;4995071;58;1138591;-74
2023/07/14 03:50:33;;;;;;;3.43;2.07;;;;;;;16.79;90.52;100901.64;4998160;58;1138885;-70
2023/07/14 03:55:39;;;;;;;6.20;2.50;;;;;;;16.64;91.98;100911.14;4998289;58;1138826;-74
2023/07/14 04:00:45;;;;;;;5.93;2.00;;;;;;;16.54;93.30;100911.14;5017498;58;1138815;-74
2023/07/14 04:05:51;;;;;;;3.50;2.23;;;;;;;16.50;93.90;100909.25;4998288;58;1138743;-71
2023/07/14 04:10:56;;;;;;;6.70;2.87;;;;;;;16.54;95.00;100919.99;4997762;57;1138757;-76
2023/07/14 04:16:04;;;;;;;8.90;1.98;;;;;;;16.56;95.82;100923.86;4866906;58;1138771;-71
2023/07/14 04:21:14;;;;;;;1.70;1.60;;;;;;;16.54;96.52;100929.34;4932833;57;1138886;-73
2023/07/14 04:26:21;;;;;;;2.30;2.10;;;;;;;16.55;96.87;100935.52;5010940;57;1138687;-71
2023/07/14 04:31:28;;;;;;;3.67;2.10;;;;;;;16.54;98.43;100941.36;4822776;58;1138820;-71
2023/07/14 04:36:34;;;;;;;5.37;2.00;;;;;;;16.47;98.88;100938.09;5007085;57;1138792;-72
2023/07/14 04:41:39;;;;;;;3.47;2.30;;;;;;;16.46;99.75;100937.75;4952820;57;1139066;-71
2023/07/14 04:46:46;;;;;;;3.12;1.82;;;;;;;16.58;100.00;100941.91;4952633;57;1138797;-74
2023/07/14 04:51:55;;;;;;;1.82;1.65;;;;;;;16.67;100.00;100945.05;4923362;57;1140843;-73
2023/07/14 04:57:00;;;;;;;2.73;2.23;;;;;;;16.75;99.77;100942.98;4892532;57;1140860;-73
2023/07/14 05:02:07;;;;;;;4.60;1.80;;;;;;;16.80;99.15;100946.88;4873057;58;1138634;-72
2023/07/14 05:07:13;;;;;;;4.92;1.64;;;;;;;16.81;99.58;100948.56;4834844;58;1138766;-74
2023/07/14 05:12:18;;;;;;;4.37;1.73;;;;;;;16.85;100.00;100955.30;4836803;58;1138782;-72
2023/07/14 05:17:24;;;;;;;8.97;2.37;;;;;;;16.89;99.73;100957.19;4860768;58;1141171;-71
2023/07/14 05:22:32;;;;;;;8.80;1.60;;;;;;;16.98;100.00;100953.60;4831125;58;1202599;-73
2023/07/14 05:27:39;;;;;;;3.17;2.00;;;;;;;17.15;100.00;100963.48;4844793;58;1140871;-71
2023/07/14 05:32:46;;;;;;;3.67;2.22;;;;;;;17.27;100.00;100964.59;4848032;58;1141144;-72
2023/07/14 05:37:53;;;;;;;2.97;1.97;;;;;;;17.39;100.00;100970.09;4858570;58;1140826;-75
2023/07/14 05:43:00;;;;;;;2.27;2.00;;;;;;;17.41;100.00;100971.63;4845717;58;1140868;-73
2023/07/14 05:48:06;;;;;;;4.17;1.95;;;;;;;17.51;100.00;100976.89;4998207;57;1140756;-72
2023/07/14 05:53:12;;;;;;;9.18;2.33;;;;;;;17.56;99.65;100967.43;5007826;57;1140830;-74
2023/07/14 05:58:18;;;;;;;3.93;2.10;;;;;;;17.64;99.82;100976.54;4998300;57;1138776;-72
2023/07/14 06:03:24;;;;;;;3.40;1.87;;;;;;;17.74;100.00;100962.08;4998007;57;1138918;-70
2023/07/14 06:08:30;;;;;;;4.35;2.87;;;;;;;17.92;99.95;100959.37;5011640;57;1141005;-72
2023/07/14 06:13:35;;;;;;;4.55;2.30;;;;;;;18.02;99.00;100960.64;4993493;57;1138638;-72
2023/07/14 06:18:41;;;;;;;5.57;1.73;;;;;;;18.21;99.75;100965.77;4998591;57;1138998;-75
2023/07/14 06:23:47;;;;;;;12.82;2.35;;;;;;;18.45;99.67;100966.44;5012333;57;1138772;-71
2023/07/14 06:28:53;;;;;;;7.70;2.45;;;;;;;18.69;99.32;100965.73;4992878;57;1140851;-72
2023/07/14 06:33:58;;;;;;;3.22;1.72;;;;;;;18.84;97.14;100967.65;4998057;57;1138783;-72
2023/07/14 06:39:04;;;;;;;4.35;1.80;;;;;;;18.89;95.55;100968.52;5017857;57;1138784;-73
2023/07/14 06:44:10;;;;;;;2.10;1.52;;;;;;;19.00;94.66;100967.38;4998002;57;1138752;-75
2023/07/14 06:49:15;;;;;;;2.80;1.67;;;;;;;19.16;95.01;100958.87;4997596;57;1138727;-71
2023/07/14 06:54:21;;;;;;;4.75;1.92;;;;;;;19.30;92.23;100963.59;5017467;57;1139001;-73
2023/07/14 06:59:26;;;;;;;4.87;1.75;;;;;;;19.41;92.64;100967.80;4998070;57;1138979;-74
2023/07/14 07:04:34;;;;;;;4.92;1.50;;;;;;;19.54;90.40;100967.38;4997930;57;1138797;-71
2023/07/14 07:09:39;;;;;;;2.03;1.70;;;;;;;19.66;90.15;100966.03;4991250;57;1138776;-71
2023/07/14 07:14:45;;;;;;;1.62;1.10;;;;;;;19.89;89.15;100967.03;4973932;57;1138801;-71
2023/07/14 07:19:50;;;;;;;2.80;1.85;;;;;;;19.93;87.85;100963.51;4997349;57;1139092;-74
2023/07/14 07:24:57;;;;;;;3.60;1.48;;;;;;;20.00;84.96;100965.37;5012672;57;1138744;-75
2023/07/14 07:30:03;;;;;;;2.60;1.25;;;;;;;20.10;85.57;100957.12;5018087;57;1138762;-70
2023/07/14 07:35:09;;;;;;;4.37;0.88;;;;;;;20.23;83.41;100964.65;4985849;58;1138713;-74
2023/07/14 07:40:15;;;;;;;3.47;1.37;;;;;;;20.29;80.85;100963.98;4977553;58;1138978;-72
2023/07/14 07:45:21;;;;;;;7.58;1.82;;;;;;;20.44;79.61;100960.11;4954927;57;1138758;-75
2023/07/14 07:50:26;;;;;;;2.90;1.42;;;;;;;20.55;80.07;100961.91;4963468;57;1138924;-74
2023/07/14 07:55:32;;;;;;;2.20;1.02;;;;;;;20.80;80.94;100971.22;4972170;57;1138920;-70
2023/07/14 08:00:38;;;;;;;5.53;1.20;;;;;;;20.87;77.55;100966.84;5003180;56;1138952;-74
2023/07/14 08:05:43;;;;;;;1.70;1.20;;;;;;;20.94;75.31;100970.48;5020179;57;1138828;-71
2023/07/14 08:10:49;;;;;;;3.02;1.25;;;;;;;21.05;73.71;100974.98;4996673;56;1138752;-74
2023/07/14 08:15:56;;;;;;;4.30;1.10;;;;;;;21.11;74.82;100968.55;5055266;56;1138974;-73
2023/07/14 08:21:02;;;;;;;1.92;1.10;;;;;;;21.23;74.68;100973.92;5061848;56;1138660;-75
2023/07/14 08:26:08;;;;;;;4.87;1.50;;;;;;;21.34;71.23;100973.52;4973184;57;1138805;-70
2023/07/14 08:31:14;;;;;;;4.92;1.32;;;;;;;21.47;72.21;100972.41;5002153;57;1139086;-74
2023/07/14 08:36:20;;;;;;;2.75;1.67;;;;;;;21.62;72.38;100967.09;4988445;57;1138832;-74
2023/07/14 08:41:38;;;;;;;4.85;1.47;;;;;;;21.71;68.84;100970.03;4972409;57;1138761;-75
2023/07/14 08:47:04;;;;;;;1.85;1.00;;;;;;;21.82;69.27;100968.28;4972924;57;1138853;-70
2023/07/14 08:52:23;;;;;;;1.83;1.20;;;;;;;21.93;65.16;100972.39;4930140;57;1138732;-73
2023/07/14 08:57:30;;;;;;;1.85;0.88;;;;;;;22.00;66.11;100965.27;4937510;58;1138734;-74
2023/07/14 09:02:46;;;;;;;1.42;0.85;;;;;;;22.15;64.32;100960.78;4918329;58;1138773;-73
2023/07/14 09:07:53;;;;;;;0.72;0.70;;;;;;;22.22;65.26;100969.78;4932093;57;1139164;-72
2023/07/14 09:13:09;;;;;;;1.08;0.98;;;;;;;22.35;60.07;100967.28;5022326;57;1146145;-73
2023/07/14 09:18:55;;;;;;;15.85;2.33;;;;;;;22.37;60.03;100967.11;4989198;57;1138898;-73
2023/07/14 09:24:14;;;;;;;0.98;0.70;;;;;;;22.53;61.85;100963.39;4936277;58;1141080;-72
2023/07/14 09:29:27;;;;;;;1.47;1.10;;;;;;;22.69;59.67;100959.16;4917854;58;1138960;-72
2023/07/14 09:34:46;;;;;;;3.02;1.47;;;;;;;22.84;61.23;100953.27;4933022;57;1138804;-74
2023/07/14 09:39:58;;;;;;;4.80;1.12;;;;;;;23.06;61.87;100952.31;5017496;57;1139232;-72
2023/07/14 09:45:22;;;;;;;1.10;1.00;;;;;;;23.14;58.17;100929.25;4998470;57;1138808;-74
2023/07/14 09:50:32;;;;;;;1.55;0.80;;;;;;;23.35;59.34;100942.45;5001725;57;1138881;-74
2023/07/14 09:55:52;;;;;;;3.72;1.07;;;;;;;23.40;57.03;100935.43;5055264;56;1138872;-73
2023/07/14 10:01:11;;;;;;;1.50;0.88;;;;;;;23.34;55.37;100942.13;4999408;57;1138820;-73
2023/07/14 10:06:27;;;;;;;3.95;0.78;;;;;;;23.52;55.20;100925.52;4930761;57;1138740;-73
2023/07/14 10:11:45;;;;;;;0.98;0.75;;;;;;;23.59;53.70;100922.35;5048155;56;1138791;-73
2023/07/14 10:16:51;;;;;;;3.05;0.93;;;;;;;23.78;57.45;100914.42;5055689;56;1138790;-74
2023/07/14 10:22:12;;;;;;;3.20;1.00;;;;;;;23.82;53.40;100920.28;5059372;56;1139003;-73
2023/07/14 10:27:21;;;;;;;1.37;0.75;;;;;;;23.89;53.02;100925.20;4994162;57;1138907;-74
2023/07/14 10:32:49;;;;;;;1.15;0.60;;;;;;;24.02;53.17;100919.06;4965866;57;1138815;-73
2023/07/14 10:38:22;;;;;;;1.17;0.98;;;;;;;24.24;51.61;100903.66;4930686;57;1138728;-73
2023/07/14 10:43:41;;;;;;;1.15;1.10;;;;;;;24.34;53.20;100898.20;4950036;57;1138792;-73
2023/07/14 10:49:08;;;;;;;2.40;0.98;;;;;;;24.52;53.10;100897.67;4961696;57;1138926;-73
2023/07/14 10:54:16;;;;;;;1.67;0.77;;;;;;;24.47;51.05;100896.08;4972426;57;1138756;-73
2023/07/14 10:59:32;;;;;;;1.27;0.78;;;;;;;24.64;53.07;100897.41;5011746;57;1138608;-73
2023/07/14 11:04:47;;;;;;;2.52;0.95;;;;;;;24.70;51.03;100891.72;5054230;57;1138819;-74
2023/07/14 11:09:53;;;;;;;1.40;0.80;;;;;;;24.83;50.75;100887.19;5053998;57;1139016;-73
2023/07/14 11:15:18;;;;;;;1.65;1.17;;;;;;;24.89;47.53;100878.27;5074324;57;1138923;-74
2023/07/14 11:20:31;;;;;;;0.80;0.60;;;;;;;24.98;48.91;100870.82;5051678;56;1138802;-74
2023/07/14 11:25:46;;;;;;;1.40;1.27;;;;;;;25.01;49.25;100877.19;4971951;58;1138766;-73
2023/07/14 11:30:56;;;;;;;2.35;1.30;;;;;;;25.07;49.46;100866.88;5028316;57;1138745;-73
2023/07/14 11:36:15;;;;;;;2.25;1.20;;;;;;;25.25;50.88;100862.22;4990383;57;1138871;-75
2023/07/14 11:41:21;;;;;;;5.33;2.27;;;;;;;25.56;45.99;100870.58;4968472;57;1138776;-73
2023/07/14 11:46:28;;;;;;;0.70;0.70;;;;;;;25.77;45.48;100854.66;4968810;57;1138715;-74
2023/07/14 11:51:56;;;;;;;1.00;0.95;;;;;;;25.96;43.09;100850.27;4969656;57;1138743;-74
2023/07/14 11:57:06;;;;;;;2.30;1.20;;;;;;;25.98;46.10;100850.86;4952530;58;1138953;-75
2023/07/14 12:02:32;;;;;;;1.02;1.00;;;;;;;26.04;46.84;100843.77;4907494;58;1138886;-73
2023/07/14 12:07:40;;;;;;;1.27;1.00;;;;;;;26.19;47.84;100846.55;4910782;59;1138835;-74
2023/07/14 12:13:05;;;;;;;1.95;1.15;;;;;;;26.24;43.34;100843.20;4879123;59;1138907;-74
2023/07/14 12:18:34;;;;;;;1.67;1.00;;;;;;;26.10;44.36;100847.00;4711214;61;1138746;-72
2023/07/14 12:23:40;;;;;;;2.43;1.17;;;;;;;26.16;44.25;100840.70;4649535;60;1138886;-74
2023/07/14 12:28:47;;;;;;;6.93;1.67;;;;;;;26.00;42.84;100843.35;4630704;61;1138856;-74
2023/07/14 12:33:56;;;;;;;4.17;1.20;;;;;;;25.85;43.15;100834.63;4645061;61;1139086;-74
2023/07/14 12:39:04;;;;;;;2.42;1.20;;;;;;;26.17;43.17;100835.08;4627806;61;1138948;-73
2023/07/14 12:44:28;;;;;;;3.70;1.33;;;;;;;26.56;42.55;100835.49;4649446;59;1138809;-73
2023/07/14 12:49:46;;;;;;;1.27;1.10;;;;;;;26.43;42.29;100832.02;4719204;59;1138781;-73
2023/07/14 12:54:52;;;;;;;1.72;1.00;;;;;;;26.22;42.33;100827.67;4929615;58;1138899;-73
2023/07/14 12:59:57;;;;;;;6.42;1.15;;;;;;;26.11;42.59;100817.49;4917615;58;1138790;-74
2023/07/14 13:05:03;;;;;;;6.25;1.42;;;;;;;26.22;43.10;100805.97;4969196;57;1138845;-75
2023/07/14 13:10:19;;;;;;;6.47;1.20;;;;;;;26.45;40.96;100809.02;5003608;57;1138650;-73
2023/07/14 13:15:39;;;;;;;14.87;12.37;;;;;;;26.55;41.16;100805.34;4967574;57;1138821;-73
2023/07/14 13:20:42;;;;;;;2.15;1.45;;;;;;;26.57;40.47;100801.06;4989543;57;1142827;-73
2023/07/14 13:25:55;;;;;;;1.40;1.20;;;;;;;26.56;40.88;100796.16;4918427;58;1138783;-72
2023/07/14 13:31:11;;;;;;;1.47;1.07;;;;;;;26.33;41.37;100793.64;4961375;57;1138546;-72
2023/07/14 13:36:29;;;;;;;1.47;1.02;;;;;;;26.26;41.21;100798.56;4998384;57;1138705;-73
2023/07/14 13:41:35;;;;;;;3.60;1.05;;;;;;;26.21;42.07;100790.23;4998571;57;1138632;-73
2023/07/14 13:46:41;;;;;;;1.17;1.07;;;;;;;26.32;42.50;100794.69;4997955;57;1138818;-73
2023/07/14 13:51:46;;;;;;;2.27;1.15;;;;;;;26.42;42.32;100783.71;4975927;57;1138631;-73
2023/07/14 13:56:53;;;;;;;2.80;1.12;;;;;;;26.38;41.92;100777.57;4998088;57;1138931;-73
2023/07/14 14:01:58;;;;;;;6.47;1.67;;;;;;;26.50;42.40;100772.59;4998082;57;1138762;-72
2023/07/14 14:07:06;;;;;;;3.12;1.27;;;;;;;26.55;43.39;100774.67;5025349;57;1138844;-74
2023/07/14 14:12:14;;;;;;;4.28;1.57;;;;;;;26.52;43.40;100766.95;5011208;57;1138676;-74
2023/07/14 14:17:35;;;;;;;2.33;1.82;;;;;;;26.63;42.76;100768.97;5008210;57;1138934;-75
2023/07/14 14:22:42;;;;;;;2.87;1.37;;;;;;;26.60;42.01;100769.40;4800399;59;1138769;-76
2023/07/14 14:27:50;;;;;;;3.58;1.30;;;;;;;26.75;41.18;100760.95;5011278;57;1138754;-76
2023/07/14 14:33:01;;;;;;;1.12;1.02;;;;;;;26.87;42.59;100752.44;4907516;58;1138699;-73
2023/07/14 14:38:25;;;;;;;1.72;1.12;;;;;;;26.69;40.72;100751.83;4907085;58;1138695;-74
2023/07/14 14:43:32;;;;;;;4.62;1.10;;;;;;;26.55;41.92;100742.95;4935639;58;1138809;-74
2023/07/14 14:48:37;;;;;;;4.67;1.20;;;;;;;26.73;42.81;100738.66;4945010;57;1138602;-74
2023/07/14 14:53:43;;;;;;;2.67;1.20;;;;;;;26.86;42.17;100742.11;4998079;58;1138802;-72
2023/07/14 14:58:51;;;;;;;1.62;1.25;;;;;;;26.91;41.02;100734.64;5017838;57;1138480;-72
2023/07/14 15:03:58;;;;;;;2.12;1.15;;;;;;;27.00;41.60;100728.46;4963293;57;1138912;-72
2023/07/14 15:09:03;;;;;;;2.83;1.55;;;;;;;26.93;41.61;100729.33;4959125;57;1138701;-72
2023/07/14 15:14:19;;;;;;;5.87;1.15;;;;;;;27.04;42.50;100724.26;4979104;57;1138730;-73
2023/07/14 15:19:25;;;;;;;1.72;1.22;;;;;;;27.11;41.95;100724.49;4816544;57;1138815;-73
2023/07/14 15:24:31;;;;;;;2.72;1.45;;;;;;;26.92;42.67;100722.73;4869404;58;1138804;-73
2023/07/14 15:29:37;;;;;;;2.87;1.30;;;;;;;26.76;43.03;100721.39;4905513;57;1138953;-73
2023/07/14 15:34:48;;;;;;;2.25;1.45;;;;;;;26.72;43.10;100720.72;4988210;57;1138557;-74
2023/07/14 15:39:55;;;;;;;1.75;1.10;;;;;;;26.57;41.75;100719.67;4820288;57;1138945;-65
2023/07/14 15:45:01;;;;;;;2.30;1.35;;;;;;;26.66;43.87;100710.20;4841846;57;1138627;-64
2023/07/14 15:50:09;;;;;;;4.40;1.57;;;;;;;26.72;43.32;100712.05;4948807;57;1139019;-74
2023/07/14 15:55:32;;;;;;;3.65;1.77;;;;;;;26.78;41.75;100711.67;4955682;57;1138801;-73
2023/07/14 16:00:39;;;;;;;1.10;1.10;;;;;;;26.76;41.30;100706.99;4952299;57;1138961;-74
2023/07/14 16:05:47;;;;;;;4.53;1.53;;;;;;;26.66;40.87;100714.27;4958144;57;1138889;-73
2023/07/14 16:10:54;;;;;;;5.97;1.35;;;;;;;26.64;41.73;100705.52;4930928;57;1139120;-73
2023/07/14 16:16:00;;;;;;;5.87;1.47;;;;;;;26.74;41.53;100700.95;4803910;58;1138683;-73
2023/07/14 16:21:12;;;;;;;2.52;1.38;;;;;;;26.71;41.62;100702.25;4851714;58;1138822;-74
2023/07/14 16:26:17;;;;;;;4.22;1.70;;;;;;;26.69;40.84;100701.63;4928201;57;1138943;-73
2023/07/14 16:31:25;;;;;;;6.78;1.70;;;;;;;26.76;40.76;100705.11;4959175;57;1139047;-74
2023/07/14 16:36:33;;;;;;;3.90;1.50;;;;;;;26.78;40.65;100698.94;4867867;57;1138623;-73
2023/07/14 16:41:38;;;;;;;3.30;1.52;;;;;;;26.78;40.47;100692.68;4883127;58;1138743;-72
2023/07/14 16:46:56;;;;;;;2.52;1.50;;;;;;;26.89;41.60;100691.95;4978914;57;1138499;-73
2023/07/14 16:52:04;;;;;;;1.65;1.55;;;;;;;27.03;40.99;100688.66;4930982;57;1138784;-72
2023/07/14 16:57:26;;;;;;;1.50;1.40;;;;;;;27.05;40.11;100689.23;4973468;57;1138734;-72
2023/07/14 17:02:35;;;;;;;1.42;1.32;;;;;;;26.95;39.86;100685.69;4986622;57;1138808;-74
2023/07/14 17:07:41;;;;;;;1.90;1.70;;;;;;;26.90;39.71;100681.41;5001346;57;1139066;-72
2023/07/14 17:12:46;;;;;;;2.52;2.25;;;;;;;26.83;40.46;100674.69;4958551;57;1138771;-73
2023/07/14 17:17:53;;;;;;;3.12;1.62;;;;;;;26.73;40.06;100681.67;4947597;57;1138884;-74
2023/07/14 17:23:01;;;;;;;5.12;1.50;;;;;;;26.60;40.40;100680.70;4976842;58;1138636;-73
2023/07/14 17:28:17;;;;;;;3.42;1.80;;;;;;;26.60;40.34;100681.23;4996497;57;1138936;-75
2023/07/14 17:33:26;;;;;;;1.70;1.60;;;;;;;26.52;40.50;100670.66;4912595;58;1138886;-74
2023/07/14 17:38:35;;;;;;;4.92;1.40;;;;;;;26.48;40.53;100671.61;4908312;58;1138728;-74
2023/07/14 17:43:43;;;;;;;4.57;1.73;;;;;;;26.49;40.41;100675.98;4958982;57;1138530;-73
2023/07/14 17:48:50;;;;;;;1.70;1.60;;;;;;;26.40;40.70;100668.34;4998387;57;1138576;-74
2023/07/14 17:53:55;;;;;;;2.75;1.70;;;;;;;26.39;40.96;100671.58;4998496;58;1138655;-74
2023/07/14 17:59:01;;;;;;;3.55;1.40;;;;;;;26.36;41.80;100673.89;5017981;58;1138721;-74
2023/07/14 18:04:07;;;;;;;2.45;1.65;;;;;;;26.31;41.59;100662.33;4998446;57;1138746;-73
2023/07/14 18:09:15;;;;;;;1.40;1.30;;;;;;;26.26;43.62;100672.47;5043126;57;1138860;-74
2023/07/14 18:14:24;;;;;;;2.90;1.60;;;;;;;26.25;45.49;100669.97;4997390;57;1138668;-74
2023/07/14 18:19:29;;;;;;;25.17;3.80;;;;;;;26.25;46.71;100668.62;4972341;57;1138762;-75
2023/07/14 18:24:36;;;;;;;26.02;5.12;;;;;;;26.15;47.40;100672.30;4979043;57;1140738;-74
2023/07/14 18:29:42;;;;;;;55.60;7.00;;;;;;;25.98;47.80;100663.84;4979013;57;1140670;-73
2023/07/14 18:34:48;;;;;;;30.45;8.05;;;;;;;25.86;48.57;100662.34;4992109;58;1140816;-74
2023/07/14 18:39:53;;;;;;;15.32;6.55;;;;;;;25.74;49.03;100668.13;4971990;58;1140815;-74
2023/07/14 18:44:59;;;;;;;34.70;18.65;;;;;;;25.56;49.77;100671.48;5002451;57;1140766;-74
2023/07/14 18:50:05;;;;;;;49.33;24.72;;;;;;;25.41;51.28;100675.48;4988874;57;1142995;-73
2023/07/14 18:55:24;;;;;;;59.58;32.45;;;;;;;25.20;52.75;100673.88;4991577;57;1142916;-73
2023/07/14 19:00:29;;;;;;;31.62;15.35;;;;;;;25.00;54.27;100672.55;5053988;56;1143081;-73
2023/07/14 19:05:35;;;;;;;19.87;6.90;;;;;;;24.81;55.75;100677.41;5051546;56;1143211;-73
2023/07/14 19:10:42;;;;;;;17.67;9.13;;;;;;;24.64;56.96;100679.68;5037481;56;1140549;-74
2023/07/14 19:15:48;;;;;;;27.48;9.75;;;;;;;24.49;58.14;100681.23;5004265;56;1140949;-73
2023/07/14 19:21:13;;;;;;;33.25;12.25;;;;;;;24.42;59.20;100679.56;5026987;56;1140887;-71
2023/07/14 19:26:20;;;;;;;47.50;19.12;;;;;;;24.33;59.99;100687.02;4991979;57;1142988;-72
2023/07/14 19:31:32;;;;;;;43.08;22.50;;;;;;;24.23;60.77;100687.07;4988115;56;1142850;-72
2023/07/14 19:36:38;;;;;;;35.60;16.40;;;;;;;24.10;61.75;100679.77;4989814;56;1143088;-72
2023/07/14 19:41:52;;;;;;;25.23;12.30;;;;;;;23.88;62.27;100676.86;5007840;56;1142865;-72
2023/07/14 19:46:58;;;;;;;14.47;8.73;;;;;;;23.69;62.74;100675.22;5001038;56;1143330;-72
2023/07/14 19:52:05;;;;;;;8.95;4.72;;;;;;;23.58;63.35;100678.50;4902635;57;1140687;-72
2023/07/14 19:57:16;;;;;;;5.05;4.10;;;;;;;23.54;64.13;100679.09;4981888;57;1138656;-74
2023/07/14 20:02:26;;;;;;;10.60;5.17;;;;;;;23.41;64.19;100673.06;4980553;57;1138674;-73
2023/07/14 20:07:32;;;;;;;6.33;4.40;;;;;;;23.27;64.64;100677.55;4971025;57;1140821;-72
2023/07/14 20:12:37;;;;;;;8.68;5.12;;;;;;;23.13;65.46;100677.14;5028706;57;1138581;-72
2023/07/14 20:17:43;;;;;;;7.75;5.17;;;;;;;23.00;65.46;100677.89;5055237;57;1138890;-73
2023/07/14 20:22:53;;;;;;;13.70;7.53;;;;;;;22.82;65.61;100669.44;5032344;57;1138747;-72
2023/07/14 20:27:59;;;;;;;15.40;9.03;;;;;;;22.79;66.40;100671.17;4972861;58;1140749;-72
2023/07/14 20:33:04;;;;;;;17.20;11.25;;;;;;;22.69;66.58;100669.30;4972483;58;1141037;-73
2023/07/14 20:38:14;;;;;;;8.78;5.85;;;;;;;22.57;67.46;100667.64;5007382;58;1143084;-74
2023/07/14 20:43:24;;;;;;;5.58;3.50;;;;;;;22.56;68.22;100671.37;4975304;57;1138860;-73
2023/07/14 20:48:30;;;;;;;7.25;2.52;;;;;;;22.42;68.25;100677.14;5055029;57;1138797;-72
2023/07/14 20:53:35;;;;;;;11.88;2.37;;;;;;;22.00;70.29;100672.52;5054611;57;1138854;-72
2023/07/14 20:58:42;;;;;;;4.53;2.87;;;;;;;22.00;70.29;100672.52;5074952;57;1140906;-72
2023/07/14 21:03:50;;;;;;;6.33;2.60;;;;;;;22.00;70.52;100677.91;5051372;57;1138706;-72
2023/07/14 21:08:56;;;;;;;5.37;3.02;;;;;;;22.05;70.29;100676.84;5050869;56;1138762;-72
2023/07/14 21:14:02;;;;;;;7.22;3.45;;;;;;;21.89;69.29;100682.41;5043083;57;1138713;-72
2023/07/14 21:19:08;;;;;;;4.28;3.00;;;;;;;21.66;69.43;100677.67;4997862;57;1138827;-72
2023/07/14 21:24:17;;;;;;;3.52;3.22;;;;;;;21.56;69.99;100679.80;4933957;58;1138918;-72
2023/07/14 21:29:23;;;;;;;8.08;3.47;;;;;;;21.52;70.38;100680.70;4937759;58;1138850;-72
2023/07/14 21:34:29;;;;;;;10.85;3.33;;;;;;;21.49;70.94;100682.92;4918178;58;1138859;-72
2023/07/14 21:39:35;;;;;;;9.65;3.98;;;;;;;21.45;71.19;100674.89;4954888;57;1140778;-72
2023/07/14 21:44:41;;;;;;;9.73;4.30;;;;;;;21.30;71.88;100677.58;4998569;57;1138812;-72
2023/07/14 21:49:46;;;;;;;11.55;3.80;;;;;;;21.17;71.93;100678.19;5017766;57;1138776;-72
2023/07/14 21:54:52;;;;;;;4.87;2.67;;;;;;;20.98;72.78;100674.16;4998472;57;1140825;-72
2023/07/14 21:59:57;;;;;;;5.28;3.45;;;;;;;20.93;73.74;100671.17;4995480;57;1138851;-72
2023/07/14 22:05:03;;;;;;;3.33;2.30;;;;;;;20.98;74.47;100680.05;4983429;57;1138880;-72
2023/07/14 22:10:16;;;;;;;4.92;3.30;;;;;;;20.89;73.31;100683.34;4982136;57;1138903;-72
2023/07/14 22:15:24;;;;;;;4.60;3.77;;;;;;;20.59;72.40;100668.98;4976687;57;1138695;-72
2023/07/14 22:20:30;;;;;;;5.08;2.95;;;;;;;20.54;73.34;100674.55;5040583;57;1138611;-72
2023/07/14 22:25:36;;;;;;;5.17;3.25;;;;;;;20.43;73.21;100675.82;4996722;57;1138665;-72
2023/07/14 22:30:42;;;;;;;3.55;3.25;;;;;;;20.32;73.81;100671.64;4973075;58;1138605;-71
2023/07/14 22:35:51;;;;;;;5.05;3.15;;;;;;;20.12;73.96;100670.45;4994401;57;1138703;-72
2023/07/14 22:41:02;;;;;;;7.50;3.12;;;;;;;20.01;75.79;100674.89;5055076;57;1138613;-71
2023/07/14 22:46:08;;;;;;;9.78;4.50;;;;;;;19.92;75.40;100674.58;5055003;57;1138819;-72
2023/07/14 22:51:21;;;;;;;9.85;4.53;;;;;;;19.88;75.90;100676.77;5074936;57;1138608;-72
2023/07/14 22:56:29;;;;;;;4.72;3.87;;;;;;;19.85;75.92;100666.92;5053190;57;1138896;-71
2023/07/14 23:01:37;;;;;;;5.05;4.03;;;;;;;19.72;76.37;100663.42;5054255;57;1139053;-71
2023/07/14 23:06:43;;;;;;;7.33;3.60;;;;;;;19.66;76.77;100669.51;5054933;57;1139109;-71
2023/07/14 23:11:49;;;;;;;3.87;3.20;;;;;;;19.65;77.27;100670.52;5074698;57;1138656;-73
2023/07/14 23:16:55;;;;;;;9.60;4.85;;;;;;;19.66;77.50;100667.66;5054070;57;1138799;-72
2023/07/14 23:22:00;;;;;;;4.55;3.37;;;;;;;19.60;78.00;100660.80;5025316;57;1138974;-71